createdAt,value
2017-11-04T00:01:40.451Z,15.88
2017-11-04T00:04:06.820Z,14.80
2017-11-04T00:06:33.907Z,12.98
2017-11-04T00:09:00.246Z,14.57
2017-11-04T00:11:26.595Z,15.10
2017-11-04T00:13:52.929Z,13.35
2017-11-04T00:16:19.263Z,14.23
2017-11-04T00:18:46.586Z,12.85
2017-11-04T00:21:12.925Z,12.45
2017-11-04T00:23:39.242Z,12.13
2017-11-04T00:26:05.583Z,11.32
2017-11-04T00:28:31.926Z,12.10
2017-11-04T00:30:58.254Z,12.40
2017-11-04T00:33:24.607Z,13.05
2017-11-04T00:35:51.683Z,13.18
2017-11-04T00:38:18.004Z,12.40
2017-11-04T00:40:44.375Z,12.68
2017-11-04T00:43:10.772Z,13.27
2017-11-04T00:45:37.106Z,14.43
2017-11-04T00:48:03.459Z,13.25
2017-11-04T00:50:29.786Z,13.35
2017-11-04T00:52:56.139Z,11.85
2017-11-04T00:55:22.507Z,11.40
2017-11-04T00:57:49.595Z,12.15
2017-11-04T01:00:15.921Z,11.25
2017-11-04T01:02:43.302Z,10.65
2017-11-04T01:05:09.622Z,12.82
2017-11-04T01:07:35.967Z,10.85
2017-11-04T01:10:02.326Z,12.30
2017-11-04T01:12:29.449Z,11.85
2017-11-04T01:14:55.767Z,12.37
2017-11-04T01:17:22.130Z,12.95
2017-11-04T01:19:49.239Z,11.27
2017-11-04T01:22:15.591Z,11.77
2017-11-04T01:24:41.987Z,12.40
2017-11-04T01:27:08.316Z,11.80
2017-11-04T01:29:34.677Z,10.70
2017-11-04T01:32:01.022Z,13.07
2017-11-04T01:34:28.442Z,12.32
2017-11-04T01:36:55.561Z,10.45
2017-11-04T01:39:21.886Z,11.07
2017-11-04T01:41:48.977Z,11.45
2017-11-04T01:44:15.329Z,11.45
2017-11-04T01:46:41.702Z,12.13
2017-11-04T01:49:08.043Z,9.60
2017-11-04T01:51:35.254Z,10.68
2017-11-04T01:54:01.360Z,10.50
2017-11-04T01:56:27.724Z,9.35
2017-11-04T01:58:54.091Z,10.30
2017-11-04T02:01:20.410Z,10.45
2017-11-04T02:03:46.775Z,10.32
2017-11-04T02:06:13.150Z,10.98
2017-11-04T02:08:40.274Z,11.98
2017-11-04T02:11:06.603Z,9.90
2017-11-04T02:13:33.006Z,9.60
2017-11-04T02:15:59.371Z,8.68
2017-11-04T02:18:25.737Z,10.25
2017-11-04T02:20:52.123Z,10.23
2017-11-04T02:23:19.522Z,12.20
2017-11-04T02:25:45.867Z,14.65
2017-11-04T02:28:12.232Z,13.73
2017-11-04T02:30:38.559Z,14.25
2017-11-04T02:33:05.994Z,11.38
2017-11-04T02:35:32.360Z,11.82
2017-11-04T02:37:59.736Z,11.25
2017-11-04T02:40:26.811Z,10.73
2017-11-04T02:42:53.194Z,10.10
2017-11-04T02:45:19.522Z,9.32
2017-11-04T02:47:45.858Z,11.00
2017-11-04T02:50:12.242Z,10.35
2017-11-04T02:52:38.593Z,11.02
2017-11-04T02:55:04.930Z,12.02
2017-11-04T02:57:31.275Z,11.63
2017-11-04T02:59:58.538Z,8.90
2017-11-04T03:02:24.862Z,9.95
2017-11-04T03:04:52.002Z,10.05
2017-11-04T03:07:18.330Z,10.25
2017-11-04T03:09:44.678Z,10.30
2017-11-04T03:12:11.659Z,9.48
2017-11-04T03:14:38.020Z,10.68
2017-11-04T03:17:04.368Z,11.05
2017-11-04T03:19:30.726Z,11.12
2017-11-04T03:21:57.841Z,10.68
2017-11-04T03:24:24.211Z,11.18
2017-11-04T03:26:51.335Z,11.57
2017-11-04T03:29:17.705Z,12.00
2017-11-04T03:31:46.467Z,10.30
2017-11-04T03:34:13.581Z,9.38
2017-11-04T03:36:39.938Z,10.15
2017-11-04T03:39:06.290Z,9.13
2017-11-04T03:41:33.373Z,10.88
2017-11-04T03:43:59.739Z,9.70
2017-11-04T03:46:26.075Z,10.45
2017-11-04T03:48:52.446Z,9.35
2017-11-04T03:51:18.761Z,9.35
2017-11-04T03:53:45.860Z,9.00
2017-11-04T03:56:12.185Z,9.57
2017-11-04T03:58:38.577Z,9.52
2017-11-04T04:01:04.898Z,9.95
2017-11-04T04:03:31.986Z,9.98
2017-11-04T04:05:58.328Z,10.35
2017-11-04T04:08:24.656Z,9.65
2017-11-04T04:10:51.027Z,9.27
2017-11-04T04:13:18.094Z,9.77
2017-11-04T04:15:44.421Z,9.98
2017-11-04T04:18:11.518Z,10.63
2017-11-04T04:20:37.851Z,11.90
2017-11-04T04:23:04.202Z,10.15
2017-11-04T04:25:30.554Z,10.35
2017-11-04T04:27:56.885Z,11.48
2017-11-04T04:30:23.959Z,10.20
2017-11-04T04:32:50.303Z,10.25
2017-11-04T04:35:16.631Z,12.55
2017-11-04T04:37:42.983Z,11.27
2017-11-04T04:40:09.362Z,11.27
2017-11-04T04:42:35.754Z,12.15
2017-11-04T04:45:02.122Z,9.75
2017-11-04T04:47:29.249Z,10.45
2017-11-04T04:49:55.603Z,10.70
2017-11-04T04:52:22.691Z,10.00
2017-11-04T04:54:49.043Z,9.27
2017-11-04T04:57:15.416Z,10.32
2017-11-04T04:59:41.736Z,9.55
2017-11-04T05:02:08.822Z,9.07
2017-11-04T05:04:35.144Z,9.00
2017-11-04T05:07:02.522Z,9.38
2017-11-04T05:09:28.877Z,10.23
2017-11-04T05:11:55.539Z,9.93
2017-11-04T05:14:22.592Z,10.00
2017-11-04T05:16:48.940Z,10.23
2017-11-04T05:19:15.292Z,10.52
2017-11-04T05:21:41.678Z,10.63
2017-11-04T05:24:08.743Z,8.60
2017-11-04T05:26:35.087Z,8.30
2017-11-04T05:29:01.446Z,8.90
2017-11-04T05:31:27.764Z,8.82
2017-11-04T05:33:54.150Z,8.15
2017-11-04T05:36:20.479Z,8.80
2017-11-04T05:38:47.565Z,8.70
2017-11-04T05:41:13.911Z,8.77
2017-11-04T05:43:41.394Z,8.52
2017-11-04T05:46:07.715Z,9.45
2017-11-04T05:48:34.066Z,10.13
2017-11-04T05:51:01.171Z,11.27
2017-11-04T05:53:27.507Z,10.50
2017-11-04T05:55:53.842Z,10.05
2017-11-04T05:58:20.210Z,10.50
2017-11-04T06:00:47.351Z,11.20
2017-11-04T06:03:14.447Z,10.90
2017-11-04T06:05:40.834Z,10.30
2017-11-04T06:08:07.894Z,8.82
2017-11-04T06:10:34.235Z,8.48
2017-11-04T06:13:00.620Z,8.93
2017-11-04T06:15:26.946Z,9.20
2017-11-04T06:17:53.276Z,8.85
2017-11-04T06:20:19.640Z,9.18
2017-11-04T06:22:46.032Z,8.82
2017-11-04T06:25:12.358Z,8.48
2017-11-04T06:27:38.702Z,9.40
2017-11-04T06:30:05.060Z,9.55
2017-11-04T06:32:32.167Z,9.45
2017-11-04T06:34:58.546Z,9.02
2017-11-04T06:37:25.698Z,9.52
2017-11-04T06:39:52.040Z,9.50
2017-11-04T06:42:18.382Z,9.75
2017-11-04T06:44:44.696Z,9.55
2017-11-04T06:47:11.055Z,9.15
2017-11-04T06:49:37.378Z,9.25
2017-11-04T06:52:03.744Z,9.32
2017-11-04T06:54:30.075Z,8.90
2017-11-04T06:56:57.806Z,8.73
2017-11-04T06:59:24.142Z,9.30
2017-11-04T07:01:50.493Z,8.55
2017-11-04T07:04:16.815Z,8.80
2017-11-04T07:06:43.151Z,8.55
2017-11-04T07:09:09.485Z,8.23
2017-11-04T07:11:35.844Z,6.80
2017-11-04T07:14:02.952Z,7.62
2017-11-04T07:16:29.327Z,6.57
2017-11-04T07:18:56.405Z,7.97
2017-11-04T07:21:22.758Z,7.82
2017-11-04T07:23:49.082Z,7.60
2017-11-04T07:26:15.447Z,7.32
2017-11-04T07:28:41.767Z,7.00
2017-11-04T07:31:08.124Z,7.40
2017-11-04T07:33:35.179Z,5.87
2017-11-04T07:36:02.278Z,7.10
2017-11-04T07:38:28.602Z,7.80
2017-11-04T07:40:54.963Z,7.05
2017-11-04T07:43:21.287Z,7.43
2017-11-04T07:45:47.630Z,6.97
2017-11-04T07:48:13.992Z,8.05
2017-11-04T07:50:40.398Z,5.95
2017-11-04T07:53:08.524Z,5.12
2017-11-04T07:55:34.891Z,4.87
2017-11-04T07:58:01.962Z,4.37
2017-11-04T08:00:28.291Z,4.75
2017-11-04T08:02:54.658Z,4.25
2017-11-04T08:05:20.998Z,4.30
2017-11-04T08:07:47.322Z,3.55
2017-11-04T08:10:13.695Z,4.43
2017-11-04T08:12:40.798Z,3.75
2017-11-04T08:15:07.142Z,3.70
2017-11-04T08:17:33.527Z,3.47
2017-11-04T08:19:59.857Z,3.42
2017-11-04T08:22:26.212Z,4.05
2017-11-04T08:24:52.536Z,4.60
2017-11-04T08:27:19.755Z,4.05
2017-11-04T08:29:46.840Z,3.90
2017-11-04T08:32:13.194Z,4.05
2017-11-04T08:34:39.523Z,3.83
2017-11-04T08:37:05.865Z,3.33
2017-11-04T08:39:32.186Z,3.58
2017-11-04T08:42:02.510Z,3.65
2017-11-04T08:44:31.003Z,3.50
2017-11-04T08:46:57.504Z,3.00
2017-11-04T08:49:25.020Z,3.37
2017-11-04T08:51:51.474Z,2.70
2017-11-04T08:54:17.971Z,3.20
2017-11-04T08:57:01.783Z,3.72
2017-11-04T08:59:28.270Z,3.20
2017-11-04T09:01:54.791Z,3.00
2017-11-04T09:04:21.942Z,3.25
2017-11-04T09:06:50.079Z,2.97
2017-11-04T09:09:16.528Z,2.62
2017-11-04T09:11:43.719Z,3.30
2017-11-04T09:14:10.224Z,3.03
2017-11-04T09:16:37.422Z,2.90
2017-11-04T09:19:03.801Z,2.85
2017-11-04T09:21:30.279Z,3.53
2017-11-04T09:23:56.720Z,3.30
2017-11-04T09:26:23.104Z,3.20
2017-11-04T09:28:50.309Z,3.20
2017-11-04T09:31:16.786Z,2.90
2017-11-04T09:33:43.180Z,2.40
2017-11-04T09:36:09.683Z,2.60
2017-11-04T09:38:36.107Z,3.03
2017-11-04T09:41:02.602Z,2.90
2017-11-04T09:43:31.335Z,2.40
2017-11-04T09:45:58.217Z,3.00
2017-11-04T09:48:24.823Z,2.97
2017-11-04T09:50:51.354Z,2.40
2017-11-04T09:53:18.895Z,2.60
2017-11-04T09:55:46.145Z,4.07
2017-11-04T09:58:12.556Z,8.97
2017-11-04T10:00:39.016Z,3.00
2017-11-04T10:03:05.437Z,2.73
2017-11-04T10:05:31.912Z,2.47
2017-11-04T10:07:58.388Z,2.87
2017-11-04T10:10:24.801Z,2.33
2017-11-04T10:12:51.226Z,3.00
2017-11-04T10:15:17.681Z,3.40
2017-11-04T10:17:44.857Z,2.83
2017-11-04T10:20:12.035Z,2.60
2017-11-04T10:22:38.518Z,2.70
2017-11-04T10:25:04.946Z,2.60
2017-11-04T10:27:31.342Z,2.60
2017-11-04T10:30:05.791Z,2.47
2017-11-04T10:32:32.197Z,2.80
2017-11-04T10:34:58.657Z,2.90
2017-11-04T10:37:25.053Z,3.30
2017-11-04T10:39:52.544Z,2.37
2017-11-04T10:42:19.045Z,3.23
2017-11-04T10:44:45.467Z,2.60
2017-11-04T10:47:11.853Z,3.80
2017-11-04T10:49:38.259Z,3.03
2017-11-04T10:52:04.648Z,3.13
2017-11-04T10:54:31.023Z,3.60
2017-11-04T10:56:57.383Z,2.77
2017-11-04T10:59:23.703Z,3.00
2017-11-04T11:01:50.067Z,2.53
2017-11-04T11:04:16.400Z,2.67
2017-11-04T11:06:42.726Z,2.47
2017-11-04T11:09:09.826Z,3.10
2017-11-04T11:11:36.195Z,2.60
2017-11-04T11:14:03.269Z,2.63
2017-11-04T11:16:29.617Z,2.77
2017-11-04T11:18:55.939Z,2.93
2017-11-04T11:21:22.296Z,2.70
2017-11-04T11:23:48.625Z,2.30
2017-11-04T11:26:14.970Z,2.57
2017-11-04T11:28:41.303Z,3.10
2017-11-04T11:31:07.670Z,3.20
2017-11-04T11:33:34.030Z,3.10
2017-11-04T11:36:00.385Z,3.43
2017-11-04T11:38:26.718Z,3.00
2017-11-04T11:40:53.061Z,3.07
2017-11-04T11:43:19.386Z,3.27
2017-11-04T11:45:45.723Z,3.10
2017-11-04T11:48:12.079Z,3.30
2017-11-04T11:50:38.459Z,2.80
2017-11-04T11:53:04.815Z,3.43
2017-11-04T11:55:31.136Z,2.90
2017-11-04T11:57:57.565Z,3.07
2017-11-04T12:00:23.902Z,2.97
2017-11-04T12:02:50.252Z,3.00
2017-11-04T12:05:17.335Z,3.40
2017-11-04T12:07:43.714Z,2.43
2017-11-04T12:10:10.040Z,3.30
2017-11-04T12:12:36.354Z,3.00
2017-11-04T12:15:02.736Z,3.10
2017-11-04T12:17:29.834Z,3.60
2017-11-04T12:19:56.229Z,3.40
2017-11-04T12:22:22.767Z,3.40
2017-11-04T12:24:49.113Z,2.90
2017-11-04T12:27:15.433Z,2.90
2017-11-04T12:29:42.524Z,3.17
2017-11-04T12:32:08.866Z,3.60
2017-11-04T12:34:35.191Z,3.57
2017-11-04T12:37:01.531Z,3.70
2017-11-04T12:39:27.847Z,3.30
2017-11-04T12:41:54.202Z,3.67
2017-11-04T12:44:21.274Z,3.90
2017-11-04T12:46:48.035Z,3.70
2017-11-04T12:49:15.109Z,3.20
2017-11-04T12:51:41.514Z,3.13
2017-11-04T12:54:08.576Z,3.03
2017-11-04T12:56:34.918Z,3.70
2017-11-04T12:59:01.254Z,3.30
2017-11-04T13:01:27.627Z,3.60
2017-11-04T13:03:53.938Z,3.70
2017-11-04T13:06:20.290Z,4.50
2017-11-04T13:08:46.651Z,4.40
2017-11-04T13:11:12.995Z,4.30
2017-11-04T13:13:39.319Z,5.43
2017-11-04T13:16:05.659Z,4.23
2017-11-04T13:18:31.991Z,4.40
2017-11-04T13:20:58.333Z,4.63
2017-11-04T13:23:24.650Z,3.93
2017-11-04T13:25:52.003Z,4.00
2017-11-04T13:28:19.345Z,3.90
2017-11-04T13:30:45.683Z,4.43
2017-11-04T13:33:13.022Z,4.17
2017-11-04T13:35:39.366Z,5.00
2017-11-04T13:38:05.716Z,3.80
2017-11-04T13:40:32.048Z,4.37
2017-11-04T13:42:59.159Z,4.47
2017-11-04T13:45:25.503Z,4.40
2017-11-04T13:47:51.859Z,4.37
2017-11-04T13:50:18.206Z,4.90
2017-11-04T13:52:45.271Z,5.20
2017-11-04T13:55:12.334Z,4.70
2017-11-04T13:57:38.677Z,3.90
2017-11-04T14:00:05.012Z,4.83
2017-11-04T14:02:31.450Z,5.10
2017-11-04T14:04:57.778Z,4.40
2017-11-04T14:07:24.115Z,4.43
2017-11-04T14:09:50.454Z,4.13
2017-11-04T14:12:16.780Z,4.67
2017-11-04T14:14:43.107Z,4.40
2017-11-04T14:17:09.452Z,4.30
2017-11-04T14:19:35.771Z,4.50
2017-11-04T14:22:02.150Z,4.17
2017-11-04T14:24:29.270Z,4.40
2017-11-04T14:26:55.596Z,3.43
2017-11-04T14:29:21.935Z,4.40
2017-11-04T14:31:48.998Z,4.00
2017-11-04T14:34:16.057Z,3.57
2017-11-04T14:36:42.419Z,4.10
2017-11-04T14:39:08.758Z,4.03
2017-11-04T14:41:35.126Z,4.23
2017-11-04T14:44:02.182Z,3.53
2017-11-04T14:46:30.298Z,4.30
2017-11-04T14:48:56.639Z,4.23
2017-11-04T14:51:22.950Z,4.20
2017-11-04T14:53:49.291Z,4.10
2017-11-04T14:56:15.658Z,4.10
2017-11-04T14:58:42.054Z,3.90
2017-11-04T15:01:08.426Z,4.20
2017-11-04T15:03:35.533Z,4.20
2017-11-04T15:06:01.870Z,4.13
2017-11-04T15:08:28.207Z,4.07
2017-11-04T15:10:54.555Z,3.67
2017-11-04T15:13:20.920Z,4.30
2017-11-04T15:15:47.267Z,3.57
2017-11-04T15:18:14.333Z,4.00
2017-11-04T15:20:40.712Z,4.47
2017-11-04T15:23:07.778Z,3.63
2017-11-04T15:25:34.102Z,3.77
2017-11-04T15:28:00.435Z,3.57
2017-11-04T15:30:26.780Z,4.00
2017-11-04T15:32:53.097Z,4.00
2017-11-04T15:35:19.457Z,3.97
2017-11-04T15:37:45.793Z,4.03
2017-11-04T15:40:12.131Z,3.97
2017-11-04T15:42:38.507Z,4.30
2017-11-04T15:45:05.599Z,4.37
2017-11-04T15:47:31.921Z,4.67
2017-11-04T15:49:58.285Z,5.47
2017-11-04T15:52:24.606Z,5.03
2017-11-04T15:54:50.951Z,4.90
2017-11-04T15:57:17.297Z,4.93
2017-11-04T15:59:43.617Z,4.73
2017-11-04T16:02:09.958Z,4.33
2017-11-04T16:04:37.046Z,7.10
2017-11-04T16:07:03.394Z,5.30
2017-11-04T16:09:29.746Z,5.40
2017-11-04T16:11:56.070Z,5.10
2017-11-04T16:14:22.405Z,5.83
2017-11-04T16:16:48.805Z,5.77
2017-11-04T16:19:15.137Z,9.27
2017-11-04T16:21:41.499Z,6.40
2017-11-04T16:24:07.834Z,6.87
2017-11-04T16:26:34.206Z,6.50
2017-11-04T16:29:00.530Z,6.27
2017-11-04T16:31:26.859Z,16.10
2017-11-04T16:33:53.212Z,5.40
2017-11-04T16:36:19.574Z,5.77
2017-11-04T16:38:46.942Z,5.50
2017-11-04T16:41:13.299Z,6.00
2017-11-04T16:43:39.623Z,6.47
2017-11-04T16:46:06.707Z,6.77
2017-11-04T16:48:33.035Z,6.83
2017-11-04T16:51:00.367Z,15.50
2017-11-04T16:53:26.709Z,5.67
2017-11-04T16:55:53.093Z,5.30
2017-11-04T16:58:19.434Z,6.27
2017-11-04T17:00:46.533Z,15.90
2017-11-04T17:03:12.868Z,14.30
2017-11-04T17:05:39.228Z,8.50
2017-11-04T17:08:05.562Z,11.07
2017-11-04T17:10:31.900Z,18.37
2017-11-04T17:12:58.255Z,7.97
2017-11-04T17:15:24.592Z,10.80
2017-11-04T17:17:50.915Z,12.17
2017-11-04T17:20:17.275Z,14.60
2017-11-04T17:22:43.600Z,11.53
2017-11-04T17:25:09.957Z,11.10
2017-11-04T17:27:36.319Z,6.90
2017-11-04T17:30:03.419Z,17.37
2017-11-04T17:32:29.810Z,27.87
2017-11-04T17:34:56.936Z,20.80
2017-11-04T17:37:23.302Z,12.03
2017-11-04T17:39:49.652Z,9.50
2017-11-04T17:42:16.017Z,7.82
2017-11-04T17:44:42.359Z,8.30
2017-11-04T17:47:09.482Z,7.18
2017-11-04T17:49:35.819Z,6.22
2017-11-04T17:52:02.184Z,7.70
2017-11-04T17:54:28.522Z,8.80
2017-11-04T17:56:54.865Z,8.13
2017-11-04T17:59:21.202Z,8.23
2017-11-04T18:01:47.582Z,8.00
2017-11-04T18:04:13.918Z,8.90
2017-11-04T18:06:40.314Z,8.43
2017-11-04T18:09:06.659Z,9.20
2017-11-04T18:11:32.986Z,10.23
2017-11-04T18:13:59.341Z,9.03
2017-11-04T18:16:26.480Z,10.07
2017-11-04T18:18:52.814Z,8.95
2017-11-04T18:21:19.151Z,9.82
2017-11-04T18:23:45.511Z,9.35
2017-11-04T18:26:11.838Z,9.90
2017-11-04T18:28:38.162Z,10.02
2017-11-04T18:31:05.290Z,9.80
2017-11-04T18:33:31.630Z,11.20
2017-11-04T18:35:58.731Z,10.10
2017-11-04T18:38:25.082Z,9.70
2017-11-04T18:40:52.442Z,8.75
2017-11-04T18:43:18.778Z,9.50
2017-11-04T18:45:45.149Z,9.68
2017-11-04T18:48:11.500Z,9.73
2017-11-04T18:50:37.870Z,9.45
2017-11-04T18:53:04.208Z,10.30
2017-11-04T18:55:30.543Z,10.32
2017-11-04T18:57:57.618Z,9.43
2017-11-04T19:00:23.993Z,9.77
2017-11-04T19:02:50.346Z,10.35
2017-11-04T19:05:16.684Z,9.35
2017-11-04T19:07:43.780Z,9.32
2017-11-04T19:10:10.146Z,9.13
2017-11-04T19:12:36.770Z,11.25
2017-11-04T19:15:03.122Z,9.00
2017-11-04T19:17:29.478Z,10.80
2017-11-04T19:19:56.577Z,17.05
2017-11-04T19:22:22.914Z,11.15
2017-11-04T19:24:49.264Z,9.52
2017-11-04T19:27:15.590Z,10.52
2017-11-04T19:29:41.914Z,11.32
2017-11-04T19:32:08.258Z,11.52
2017-11-04T19:34:34.592Z,12.27
2017-11-04T19:37:01.724Z,10.80
2017-11-04T19:39:28.340Z,9.85
2017-11-04T19:41:54.708Z,11.38
2017-11-04T19:44:21.890Z,10.70
2017-11-04T19:46:48.246Z,9.80
2017-11-04T19:49:14.583Z,9.35
2017-11-04T19:51:40.942Z,10.32
2017-11-04T19:54:07.275Z,9.00
2017-11-04T19:56:33.631Z,8.43
2017-11-04T19:58:59.959Z,7.82
2017-11-04T20:01:26.289Z,6.55
2017-11-04T20:03:53.379Z,7.60
2017-11-04T20:06:19.766Z,7.75
2017-11-04T20:08:46.836Z,7.68
2017-11-04T20:11:13.182Z,8.48
2017-11-04T20:13:39.515Z,9.43
2017-11-04T20:16:06.056Z,14.70
2017-11-04T20:18:32.880Z,11.70
2017-11-04T20:20:59.451Z,10.25
2017-11-04T20:23:25.975Z,13.35
2017-11-04T20:25:53.461Z,6.72
2017-11-04T20:28:20.656Z,6.50
2017-11-04T20:30:47.006Z,7.55
2017-11-04T20:33:13.326Z,7.12
2017-11-04T20:35:39.695Z,8.68
2017-11-04T20:38:06.030Z,6.85
2017-11-04T20:40:32.387Z,6.00
2017-11-04T20:42:58.775Z,8.07
2017-11-04T20:45:26.010Z,7.47
2017-11-04T20:47:52.455Z,8.63
2017-11-04T20:50:18.836Z,6.95
2017-11-04T20:52:45.163Z,5.35
2017-11-04T20:55:11.495Z,4.85
2017-11-04T20:57:37.855Z,4.30
2017-11-04T21:00:04.203Z,4.57
2017-11-04T21:02:30.542Z,6.75
2017-11-04T21:04:56.974Z,13.02
2017-11-04T21:07:23.314Z,9.95
2017-11-04T21:09:49.650Z,12.05
2017-11-04T21:12:15.987Z,18.35
2017-11-04T21:14:43.083Z,10.80
2017-11-04T21:17:09.472Z,11.88
2017-11-04T21:19:36.550Z,12.50
2017-11-04T21:22:03.654Z,12.70
2017-11-04T21:24:30.046Z,14.48
2017-11-04T21:26:56.652Z,14.43
2017-11-04T21:29:23.000Z,10.88
2017-11-04T21:31:49.411Z,11.07
2017-11-04T21:34:16.509Z,8.60
2017-11-04T21:36:42.860Z,10.20
2017-11-04T21:39:09.234Z,12.43
2017-11-04T21:41:35.571Z,9.80
2017-11-04T21:44:01.915Z,9.00
2017-11-04T21:46:28.291Z,9.13
2017-11-04T21:48:55.438Z,14.07
2017-11-04T21:51:21.795Z,25.33
2017-11-04T21:53:48.166Z,20.30
2017-11-04T21:56:14.523Z,11.00
2017-11-04T21:58:41.009Z,12.27
2017-11-04T22:01:08.083Z,12.95
2017-11-04T22:03:34.417Z,9.60
2017-11-04T22:06:00.784Z,7.85
2017-11-04T22:08:27.865Z,10.10
2017-11-04T22:10:54.211Z,15.82
2017-11-04T22:13:20.568Z,15.30
2017-11-04T22:15:46.925Z,7.80
2017-11-04T22:18:13.309Z,7.53
2017-11-04T22:20:40.694Z,7.95
2017-11-04T22:23:07.067Z,6.78
2017-11-04T22:25:33.406Z,7.30
2017-11-04T22:28:00.799Z,7.15
2017-11-04T22:30:27.156Z,6.10
2017-11-04T22:32:54.275Z,5.80
2017-11-04T22:35:20.629Z,5.65
2017-11-04T22:37:47.013Z,5.70
2017-11-04T22:40:13.372Z,5.55
2017-11-04T22:42:39.763Z,5.70
2017-11-04T22:45:06.146Z,6.90
2017-11-04T22:47:32.508Z,6.22
2017-11-04T22:49:59.623Z,6.35
2017-11-04T22:52:26.011Z,6.15
2017-11-04T22:54:52.422Z,5.93
2017-11-04T22:57:18.782Z,6.65
2017-11-04T22:59:45.127Z,9.05
2017-11-04T23:02:11.508Z,6.55
2017-11-04T23:04:38.603Z,5.50
2017-11-04T23:07:04.954Z,6.30
2017-11-04T23:09:31.314Z,5.93
2017-11-04T23:11:58.417Z,6.87
2017-11-04T23:14:24.788Z,5.45
2017-11-04T23:16:51.907Z,5.65
2017-11-04T23:19:18.257Z,5.37
2017-11-04T23:21:44.600Z,5.80
2017-11-04T23:24:11.731Z,6.30
2017-11-04T23:26:38.083Z,6.12
2017-11-04T23:29:05.165Z,6.10
2017-11-04T23:31:32.283Z,6.00
2017-11-04T23:33:59.368Z,5.22
2017-11-04T23:36:25.702Z,5.22
2017-11-04T23:38:52.079Z,4.50
2017-11-04T23:41:19.174Z,4.85
2017-11-04T23:43:45.539Z,4.68
2017-11-04T23:46:11.899Z,4.75
2017-11-04T23:48:38.295Z,4.60
2017-11-04T23:51:04.655Z,4.90
2017-11-04T23:53:31.756Z,4.40
2017-11-04T23:55:58.191Z,4.50
2017-11-04T23:58:25.547Z,4.97
